createdAt,value
2022-10-18T00:01:25.023Z,11.30
2022-10-18T00:03:54.972Z,12.60
2022-10-18T00:06:24.276Z,13.37
2022-10-18T00:08:53.411Z,13.33
2022-10-18T00:11:22.693Z,12.77
2022-10-18T00:13:52.344Z,11.80
2022-10-18T00:16:21.126Z,12.60
2022-10-18T00:18:52.188Z,11.27
2022-10-18T00:21:23.070Z,11.30
2022-10-18T00:23:53.187Z,10.67
2022-10-18T00:26:24.106Z,10.63
2022-10-18T00:28:58.073Z,10.43
2022-10-18T00:31:31.251Z,9.73
2022-10-18T00:34:04.221Z,9.77
2022-10-18T00:36:35.825Z,8.17
2022-10-18T00:39:07.561Z,7.73
2022-10-18T00:41:39.261Z,7.40
2022-10-18T00:44:31.289Z,7.13
2022-10-18T00:47:05.410Z,7.00
2022-10-18T00:49:37.228Z,6.30
2022-10-18T00:52:08.500Z,6.13
2022-10-18T00:54:40.544Z,5.60
2022-10-18T00:57:10.078Z,6.03
2022-10-18T00:59:40.257Z,6.17
2022-10-18T01:02:11.169Z,5.47
2022-10-18T01:04:40.259Z,6.37
2022-10-18T01:07:16.163Z,5.93
2022-10-18T01:09:52.217Z,6.47
2022-10-18T01:12:26.935Z,6.53
2022-10-18T01:15:01.478Z,6.90
2022-10-18T01:17:37.042Z,6.67
2022-10-18T01:20:48.332Z,6.60
2022-10-18T01:23:21.139Z,6.93
2022-10-18T01:25:58.259Z,7.47
2022-10-18T01:28:38.981Z,7.40
2022-10-18T01:31:11.328Z,7.77
2022-10-18T01:33:43.920Z,7.70
2022-10-18T01:36:20.193Z,8.77
2022-10-18T01:38:52.872Z,8.60
2022-10-18T01:41:23.227Z,9.40
2022-10-18T01:43:56.402Z,8.73
2022-10-18T01:46:28.447Z,9.97
2022-10-18T01:48:58.350Z,9.80
2022-10-18T01:51:27.843Z,11.20
2022-10-18T01:53:58.067Z,9.83
2022-10-18T01:56:35.718Z,10.97
2022-10-18T01:59:23.230Z,10.57
2022-10-18T02:01:57.237Z,9.97
2022-10-18T02:04:31.726Z,11.40
2022-10-18T02:07:08.199Z,10.63
2022-10-18T02:09:40.921Z,11.20
2022-10-18T02:12:13.183Z,11.47
2022-10-18T02:14:43.743Z,10.87
2022-10-18T02:17:14.523Z,10.87
2022-10-18T02:19:47.257Z,11.67
2022-10-18T02:22:17.382Z,11.43
2022-10-18T02:24:50.811Z,11.90
2022-10-18T02:27:20.168Z,12.90
2022-10-18T02:29:49.466Z,13.07
2022-10-18T02:32:23.921Z,13.30
2022-10-18T02:34:58.324Z,11.80
2022-10-18T02:37:31.845Z,12.70
2022-10-18T02:40:01.722Z,13.50
2022-10-18T02:42:36.499Z,14.23
2022-10-18T02:45:06.006Z,14.53
2022-10-18T02:47:37.130Z,14.40
2022-10-18T02:50:07.344Z,14.47
2022-10-18T02:52:37.690Z,15.17
2022-10-18T02:55:08.063Z,14.37
2022-10-18T02:57:38.231Z,14.87
2022-10-18T03:00:08.392Z,15.00
2022-10-18T03:02:39.099Z,15.93
2022-10-18T03:05:08.507Z,14.53
2022-10-18T03:07:38.292Z,15.40
2022-10-18T03:10:09.056Z,15.90
2022-10-18T03:12:38.091Z,15.90
2022-10-18T03:15:07.816Z,15.70
2022-10-18T03:17:38.851Z,14.90
2022-10-18T03:20:09.060Z,15.03
2022-10-18T03:22:38.610Z,16.23
2022-10-18T03:25:08.317Z,14.80
2022-10-18T03:27:37.360Z,16.20
2022-10-18T03:30:07.714Z,15.97
2022-10-18T03:32:38.526Z,15.47
2022-10-18T03:35:10.447Z,15.60
2022-10-18T03:37:39.259Z,15.37
2022-10-18T03:40:10.823Z,14.80
2022-10-18T03:42:40.894Z,15.97
2022-10-18T03:45:13.381Z,15.30
2022-10-18T03:47:46.545Z,15.73
2022-10-18T03:50:16.438Z,17.70
2022-10-18T03:52:45.775Z,18.70
2022-10-18T03:55:15.565Z,18.27
2022-10-18T03:57:47.734Z,16.63
2022-10-18T04:00:17.786Z,18.10
2022-10-18T04:02:51.907Z,17.43
2022-10-18T04:05:27.749Z,19.27
2022-10-18T04:07:57.179Z,18.60
2022-10-18T04:10:26.103Z,18.13
2022-10-18T04:12:55.486Z,18.67
2022-10-18T04:15:24.580Z,18.50
2022-10-18T04:17:57.217Z,19.50
2022-10-18T04:20:26.855Z,20.03
2022-10-18T04:22:58.494Z,19.90
2022-10-18T04:25:29.807Z,19.97
2022-10-18T04:27:58.388Z,20.63
2022-10-18T04:30:27.761Z,20.57
2022-10-18T04:32:58.347Z,20.17
2022-10-18T04:35:28.754Z,21.40
2022-10-18T04:37:58.296Z,21.73
2022-10-18T04:40:27.841Z,22.10
2022-10-18T04:42:58.126Z,24.93
2022-10-18T04:45:27.627Z,22.73
2022-10-18T04:47:58.033Z,23.10
2022-10-18T04:50:27.102Z,25.60
2022-10-18T04:52:55.955Z,25.33
2022-10-18T04:55:26.018Z,24.70
2022-10-18T04:57:55.593Z,26.50
2022-10-18T05:00:25.139Z,26.43
2022-10-18T05:02:59.686Z,27.03
2022-10-18T05:05:49.995Z,27.03
2022-10-18T05:08:18.359Z,25.20
2022-10-18T05:10:47.965Z,27.43
2022-10-18T05:13:17.778Z,28.70
2022-10-18T05:15:48.560Z,29.10
2022-10-18T05:18:19.611Z,31.43
2022-10-18T05:20:49.477Z,31.37
2022-10-18T05:23:18.191Z,29.07
2022-10-18T05:25:47.277Z,29.70
2022-10-18T05:28:38.242Z,30.13
2022-10-18T05:31:07.431Z,30.50
2022-10-18T05:33:38.276Z,31.37
2022-10-18T05:36:09.199Z,31.50
2022-10-18T05:38:43.071Z,32.83
2022-10-18T05:41:13.919Z,30.50
2022-10-18T05:43:43.539Z,30.93
2022-10-18T05:46:15.441Z,31.90
2022-10-18T05:48:52.097Z,31.07
2022-10-18T05:51:21.427Z,31.83
2022-10-18T05:53:51.160Z,36.17
2022-10-18T05:56:20.229Z,34.23
2022-10-18T05:58:52.841Z,34.30
2022-10-18T06:01:23.650Z,34.63
2022-10-18T06:03:55.695Z,36.00
2022-10-18T06:06:25.127Z,35.33
2022-10-18T06:08:54.154Z,38.33
2022-10-18T06:11:25.105Z,36.47
2022-10-18T06:13:55.377Z,37.60
2022-10-18T06:16:28.508Z,35.30
2022-10-18T06:19:02.021Z,38.93
2022-10-18T06:21:32.132Z,33.97
2022-10-18T06:24:01.604Z,35.43
2022-10-18T06:26:31.216Z,33.43
2022-10-18T06:29:00.557Z,34.17
2022-10-18T06:31:30.222Z,34.87
2022-10-18T06:33:59.680Z,31.17
2022-10-18T06:36:30.732Z,32.43
2022-10-18T06:39:00.573Z,30.43
2022-10-18T06:41:30.085Z,29.93
2022-10-18T06:44:14.441Z,28.83
2022-10-18T06:46:44.364Z,27.30
2022-10-18T06:49:18.313Z,28.30
2022-10-18T06:51:50.853Z,26.93
2022-10-18T06:54:20.885Z,26.63
2022-10-18T06:56:51.051Z,26.50
2022-10-18T06:59:20.377Z,25.73
2022-10-18T07:01:50.415Z,25.23
2022-10-18T07:04:20.752Z,27.30
2022-10-18T07:06:57.183Z,24.27
2022-10-18T07:09:26.288Z,25.13
2022-10-18T07:11:56.026Z,23.63
2022-10-18T07:14:28.887Z,22.83
2022-10-18T07:17:01.121Z,23.30
2022-10-18T07:19:31.277Z,22.10
2022-10-18T07:22:03.202Z,21.37
2022-10-18T07:27:08.084Z,21.77
2022-10-18T07:29:38.842Z,21.37
2022-10-18T07:32:08.423Z,20.90
2022-10-18T07:34:37.501Z,21.03
2022-10-18T07:37:08.440Z,20.77
2022-10-18T07:39:37.600Z,21.30
2022-10-18T07:42:06.560Z,20.63
2022-10-18T07:44:35.731Z,18.77
2022-10-18T07:47:06.131Z,20.77
2022-10-18T07:49:35.372Z,18.77
2022-10-18T07:52:04.618Z,20.37
2022-10-18T07:54:35.069Z,19.83
2022-10-18T07:57:05.930Z,21.87
2022-10-18T07:59:35.246Z,34.07
2022-10-18T08:02:06.082Z,22.93
2022-10-18T08:04:35.771Z,19.80
2022-10-18T08:07:06.589Z,16.13
2022-10-18T08:09:37.203Z,16.03
2022-10-18T08:12:06.572Z,22.80
2022-10-18T08:14:35.952Z,20.80
2022-10-18T08:17:04.975Z,19.03
2022-10-18T08:19:34.443Z,21.00
2022-10-18T08:22:04.419Z,14.97
2022-10-18T08:24:33.741Z,15.17
2022-10-18T08:27:05.044Z,14.90
2022-10-18T08:29:34.311Z,13.43
2022-10-18T08:32:04.278Z,13.00
2022-10-18T08:34:33.149Z,11.40
2022-10-18T08:37:02.524Z,11.20
2022-10-18T08:39:33.941Z,10.93
2022-10-18T08:42:28.489Z,10.30
2022-10-18T08:45:05.026Z,11.73
2022-10-18T08:47:49.296Z,10.77
2022-10-18T08:50:21.301Z,10.60
2022-10-18T08:52:53.825Z,9.60
2022-10-18T08:55:27.137Z,10.13
2022-10-18T08:57:59.382Z,9.30
2022-10-18T09:00:34.579Z,9.10
2022-10-18T09:03:18.220Z,9.17
2022-10-18T09:05:51.947Z,9.70
2022-10-18T09:08:44.022Z,10.23
2022-10-18T09:11:23.380Z,9.73
2022-10-18T09:14:44.647Z,8.73
2022-10-18T09:17:20.507Z,9.90
2022-10-18T09:20:03.736Z,9.80
2022-10-18T09:22:43.261Z,8.67
2022-10-18T09:25:19.233Z,8.37
2022-10-18T09:27:54.256Z,8.23
2022-10-18T09:30:35.080Z,8.67
2022-10-18T09:33:11.817Z,8.90
2022-10-18T09:35:44.304Z,8.40
2022-10-18T09:38:15.381Z,8.70
2022-10-18T09:40:50.284Z,8.57
2022-10-18T09:43:22.879Z,9.03
2022-10-18T09:45:55.030Z,8.07
2022-10-18T09:48:28.652Z,8.07
2022-10-18T09:51:00.703Z,7.17
2022-10-18T09:53:35.826Z,7.00
2022-10-18T09:56:07.710Z,7.07
2022-10-18T09:58:44.298Z,7.33
2022-10-18T10:01:17.405Z,6.83
2022-10-18T10:03:46.658Z,7.30
2022-10-18T10:06:25.927Z,7.17
2022-10-18T10:09:01.916Z,6.90
2022-10-18T10:11:34.268Z,11.93
2022-10-18T10:14:17.861Z,7.47
2022-10-18T10:16:50.558Z,10.20
2022-10-18T10:19:22.464Z,7.67
2022-10-18T10:21:53.309Z,6.97
2022-10-18T10:24:31.213Z,9.03
2022-10-18T10:27:02.584Z,7.87
2022-10-18T10:29:54.353Z,7.00
2022-10-18T10:35:00.802Z,6.37
2022-10-18T10:37:33.453Z,6.93
2022-10-18T10:40:23.069Z,7.10
2022-10-18T10:43:36.360Z,7.13
2022-10-18T10:46:09.160Z,6.23
2022-10-18T10:48:53.764Z,7.00
2022-10-18T10:51:31.832Z,7.10
2022-10-18T10:54:03.229Z,7.50
2022-10-18T10:56:34.886Z,7.60
2022-10-18T10:59:11.494Z,7.03
2022-10-18T11:01:40.788Z,8.13
2022-10-18T11:04:30.474Z,8.33
2022-10-18T11:07:15.569Z,8.40
2022-10-18T11:09:49.736Z,8.23
2022-10-18T11:12:24.151Z,8.13
2022-10-18T11:15:05.753Z,8.03
2022-10-18T11:17:40.682Z,8.70
2022-10-18T11:20:21.527Z,8.60
2022-10-18T11:23:03.399Z,7.33
2022-10-18T11:25:59.859Z,8.60
2022-10-18T11:28:36.051Z,7.17
2022-10-18T11:31:13.463Z,6.43
2022-10-18T11:34:08.270Z,6.93
2022-10-18T11:36:54.622Z,6.90
2022-10-18T11:39:40.847Z,6.20
2022-10-18T11:42:18.392Z,5.70
2022-10-18T11:44:53.063Z,5.93
2022-10-18T11:47:27.129Z,6.27
2022-10-18T11:50:10.806Z,6.07
2022-10-18T11:52:50.760Z,5.37
2022-10-18T11:55:33.496Z,5.60
2022-10-18T11:58:09.286Z,5.27
2022-10-18T12:00:49.363Z,5.50
2022-10-18T12:03:36.739Z,5.60
2022-10-18T12:06:07.807Z,5.07
2022-10-18T12:08:40.813Z,5.00
2022-10-18T12:11:16.174Z,4.97
2022-10-18T12:13:48.469Z,4.77
2022-10-18T12:16:17.356Z,4.40
2022-10-18T12:19:06.645Z,6.00
2022-10-18T12:21:55.208Z,5.70
2022-10-18T12:24:28.707Z,5.03
2022-10-18T12:27:00.880Z,5.63
2022-10-18T12:29:32.759Z,4.90
2022-10-18T12:32:03.510Z,4.67
2022-10-18T12:34:37.470Z,4.23
2022-10-18T12:37:41.370Z,4.73
2022-10-18T12:40:21.131Z,4.20
2022-10-18T12:42:52.487Z,3.20
2022-10-18T12:45:30.359Z,4.10
2022-10-18T12:48:02.170Z,3.80
2022-10-18T12:50:35.101Z,4.70
2022-10-18T12:53:18.009Z,4.30
2022-10-18T12:55:51.863Z,4.20
2022-10-18T12:58:30.621Z,4.73
2022-10-18T13:01:02.702Z,3.97
2022-10-18T13:03:54.794Z,3.40
2022-10-18T13:06:25.954Z,3.50
2022-10-18T13:09:21.489Z,3.97
2022-10-18T13:11:52.655Z,4.40
2022-10-18T13:15:05.989Z,4.03
2022-10-18T13:17:48.645Z,4.23
2022-10-18T13:20:27.407Z,4.03
2022-10-18T13:23:06.459Z,4.50
2022-10-18T13:25:42.420Z,4.40
2022-10-18T13:28:24.408Z,3.73
2022-10-18T13:30:57.993Z,4.60
2022-10-18T13:33:37.208Z,3.70
2022-10-18T13:36:07.072Z,3.80
2022-10-18T13:38:57.897Z,3.40
2022-10-18T13:41:31.281Z,3.13
2022-10-18T13:44:28.652Z,3.27
2022-10-18T13:47:34.887Z,3.60
2022-10-18T13:50:34.677Z,3.03
2022-10-18T13:53:28.240Z,3.07
2022-10-18T13:56:07.595Z,3.10
2022-10-18T13:58:53.884Z,3.70
2022-10-18T14:01:42.696Z,2.83
2022-10-18T14:04:47.199Z,2.83
2022-10-18T14:07:20.751Z,2.60
2022-10-18T14:09:55.654Z,3.17
2022-10-18T14:12:31.593Z,2.90
2022-10-18T14:15:06.649Z,3.33
2022-10-18T14:17:43.047Z,3.27
2022-10-18T14:20:27.338Z,2.93
2022-10-18T14:23:05.097Z,3.47
2022-10-18T14:25:36.163Z,3.43
2022-10-18T14:28:12.593Z,2.60
2022-10-18T14:30:54.556Z,2.73
2022-10-18T14:33:32.469Z,3.07
2022-10-18T14:36:10.285Z,2.97
2022-10-18T14:38:48.973Z,2.80
2022-10-18T14:41:22.286Z,3.10
2022-10-18T14:43:51.324Z,3.70
2022-10-18T14:46:29.158Z,3.27
2022-10-18T14:49:03.209Z,3.73
2022-10-18T14:51:37.577Z,2.80
2022-10-18T14:54:09.713Z,2.70
2022-10-18T14:56:41.522Z,3.00
2022-10-18T14:59:17.082Z,2.93
2022-10-18T15:01:58.005Z,3.10
2022-10-18T15:04:33.512Z,3.10
2022-10-18T15:07:04.209Z,2.93
2022-10-18T15:09:33.797Z,2.90
2022-10-18T15:12:02.844Z,2.97
2022-10-18T15:14:36.464Z,3.07
2022-10-18T15:17:16.243Z,2.90
2022-10-18T15:20:05.003Z,2.47
2022-10-18T15:22:35.598Z,2.90
2022-10-18T15:25:27.952Z,2.80
2022-10-18T15:28:30.185Z,2.87
2022-10-18T15:31:02.415Z,3.13
2022-10-18T15:33:43.622Z,3.00
2022-10-18T15:36:28.272Z,3.27
2022-10-18T15:39:15.176Z,2.87
2022-10-18T15:41:50.685Z,3.13
2022-10-18T15:44:31.930Z,3.67
2022-10-18T15:47:21.880Z,2.13
2022-10-18T15:50:04.804Z,2.70
2022-10-18T15:52:42.895Z,2.90
2022-10-18T15:55:57.644Z,2.90
2022-10-18T15:58:28.517Z,2.13
2022-10-18T16:01:00.469Z,2.50
2022-10-18T16:03:30.219Z,1.70
2022-10-18T16:06:02.052Z,2.60
2022-10-18T16:08:37.224Z,1.73
2022-10-18T16:11:06.810Z,2.40
2022-10-18T16:13:35.689Z,2.00
2022-10-18T16:16:04.678Z,2.27
2022-10-18T16:18:33.436Z,2.20
2022-10-18T16:21:03.330Z,2.67
2022-10-18T16:23:33.802Z,1.93
2022-10-18T16:26:02.783Z,2.50
2022-10-18T16:28:33.421Z,2.17
2022-10-18T16:31:05.127Z,2.07
2022-10-18T16:33:33.768Z,2.57
2022-10-18T16:36:02.268Z,3.00
2022-10-18T16:38:35.227Z,2.63
2022-10-18T16:41:06.026Z,2.47
2022-10-18T16:43:35.083Z,2.37
2022-10-18T16:46:05.252Z,2.73
2022-10-18T16:48:34.418Z,3.10
2022-10-18T16:51:04.120Z,4.27
2022-10-18T16:53:34.871Z,4.60
2022-10-18T16:56:05.594Z,2.83
2022-10-18T16:58:35.318Z,3.10
2022-10-18T17:01:06.802Z,2.20
2022-10-18T17:03:38.663Z,2.50
2022-10-18T17:06:08.139Z,2.47
2022-10-18T17:08:39.159Z,2.80
2022-10-18T17:11:07.987Z,2.20
2022-10-18T17:13:37.069Z,1.90
2022-10-18T17:16:07.180Z,3.53
2022-10-18T17:18:36.307Z,2.50
2022-10-18T17:21:05.876Z,2.40
2022-10-18T17:23:35.116Z,2.70
2022-10-18T17:26:21.891Z,2.53
2022-10-18T17:28:56.196Z,2.33
2022-10-18T17:31:25.217Z,2.30
2022-10-18T17:33:55.531Z,1.90
2022-10-18T17:36:24.562Z,2.47
2022-10-18T17:38:53.600Z,2.37
2022-10-18T17:41:24.265Z,2.17
2022-10-18T17:43:53.207Z,2.30
2022-10-18T17:46:21.967Z,1.50
2022-10-18T17:48:50.741Z,1.60
2022-10-18T17:51:19.897Z,1.50
2022-10-18T17:53:49.149Z,1.70
2022-10-18T17:56:18.591Z,1.90
2022-10-18T17:58:52.397Z,1.50
2022-10-18T18:01:23.328Z,1.73
2022-10-18T18:03:56.863Z,1.40
2022-10-18T18:06:31.228Z,2.10
2022-10-18T18:09:02.901Z,1.50
2022-10-18T18:11:35.591Z,1.87
2022-10-18T18:14:09.694Z,1.60
2022-10-18T18:16:40.000Z,1.50
2022-10-18T18:19:13.211Z,1.53
2022-10-18T18:21:42.799Z,1.77
2022-10-18T18:24:12.468Z,1.73
2022-10-18T18:26:42.074Z,1.30
2022-10-18T18:29:16.743Z,2.60
2022-10-18T18:31:46.832Z,1.70
2022-10-18T18:34:18.865Z,2.03
2022-10-18T18:36:48.850Z,2.70
2022-10-18T18:39:21.712Z,1.47
2022-10-18T18:41:51.443Z,1.33
2022-10-18T18:44:25.682Z,1.43
2022-10-18T18:46:54.528Z,1.60
2022-10-18T18:49:23.767Z,1.20
2022-10-18T18:51:58.464Z,1.23
2022-10-18T18:54:31.995Z,1.60
2022-10-18T18:57:05.369Z,1.50
2022-10-18T18:59:36.237Z,1.67
2022-10-18T19:02:12.153Z,1.43
2022-10-18T19:04:41.740Z,1.83
2022-10-18T19:07:10.910Z,1.83
2022-10-18T19:09:42.369Z,1.63
2022-10-18T19:12:12.241Z,2.10
2022-10-18T19:14:43.622Z,2.10
2022-10-18T19:17:33.155Z,2.13
2022-10-18T19:20:02.358Z,1.83
2022-10-18T19:22:30.948Z,2.13
2022-10-18T19:24:59.964Z,1.70
2022-10-18T19:27:29.010Z,2.67
2022-10-18T19:30:03.349Z,1.87
2022-10-18T19:32:32.399Z,2.20
2022-10-18T19:35:02.494Z,2.33
2022-10-18T19:37:31.436Z,1.90
2022-10-18T19:40:00.916Z,1.67
2022-10-18T19:42:31.513Z,2.10
2022-10-18T19:45:00.831Z,1.80
2022-10-18T19:47:30.978Z,1.67
2022-10-18T19:49:59.962Z,1.77
2022-10-18T19:52:29.782Z,1.93
2022-10-18T19:54:59.588Z,2.30
2022-10-18T19:57:29.349Z,1.90
2022-10-18T19:59:59.158Z,1.70
2022-10-18T20:02:31.578Z,1.80
2022-10-18T20:05:02.461Z,1.60
2022-10-18T20:07:31.599Z,1.80
2022-10-18T20:10:04.031Z,3.00
2022-10-18T20:12:33.298Z,2.80
2022-10-18T20:15:03.205Z,1.43
2022-10-18T20:17:34.559Z,2.50
2022-10-18T20:20:04.300Z,1.90
2022-10-18T20:22:33.943Z,2.27
2022-10-18T20:25:03.330Z,1.60
2022-10-18T20:27:34.255Z,1.70
2022-10-18T20:30:06.453Z,1.50
2022-10-18T20:32:39.447Z,1.50
2022-10-18T20:35:08.921Z,1.60
2022-10-18T20:37:38.564Z,1.30
2022-10-18T20:40:08.438Z,1.33
2022-10-18T20:42:38.126Z,1.50
2022-10-18T20:45:08.995Z,1.63
2022-10-18T20:47:39.207Z,1.33
2022-10-18T20:50:09.606Z,1.20
2022-10-18T20:52:38.652Z,1.43
2022-10-18T20:55:08.207Z,1.37
2022-10-18T20:57:37.732Z,1.57
2022-10-18T21:00:10.143Z,1.40
2022-10-18T21:02:41.218Z,1.53
2022-10-18T21:05:11.148Z,2.03
2022-10-18T21:07:40.361Z,1.33
2022-10-18T21:10:10.266Z,1.63
2022-10-18T21:12:39.340Z,1.50
2022-10-18T21:15:10.059Z,1.60
2022-10-18T21:17:40.455Z,1.20
2022-10-18T21:20:12.051Z,1.00
2022-10-18T21:22:41.645Z,1.53
2022-10-18T21:25:11.963Z,1.47
2022-10-18T21:27:41.687Z,1.30
2022-10-18T21:32:43.641Z,1.60
2022-10-18T21:35:13.408Z,1.10
2022-10-18T21:37:42.776Z,1.10
2022-10-18T21:40:12.689Z,1.33
2022-10-18T21:42:42.229Z,1.10
2022-10-18T21:45:12.289Z,1.43
2022-10-18T21:47:42.817Z,1.40
2022-10-18T21:50:12.488Z,1.63
2022-10-18T21:52:41.658Z,1.40
2022-10-18T21:55:10.963Z,1.63
2022-10-18T21:57:40.397Z,1.43
2022-10-18T22:00:10.545Z,0.93
2022-10-18T22:02:39.589Z,0.83
2022-10-18T22:05:12.225Z,1.40
2022-10-18T22:07:41.208Z,1.20
2022-10-18T22:10:10.798Z,1.23
2022-10-18T22:12:40.239Z,1.37
2022-10-18T22:15:09.787Z,1.67
2022-10-18T22:17:38.727Z,1.43
2022-10-18T22:20:15.349Z,1.23
2022-10-18T22:22:44.899Z,1.23
2022-10-18T22:25:14.176Z,1.30
2022-10-18T22:27:43.303Z,1.53
2022-10-18T22:30:13.051Z,1.30
2022-10-18T22:32:42.508Z,1.30
2022-10-18T22:35:12.329Z,1.20
2022-10-18T22:37:42.472Z,1.93
2022-10-18T22:40:13.202Z,1.07
2022-10-18T22:42:41.718Z,1.03
2022-10-18T22:45:11.316Z,1.40
2022-10-18T22:47:40.906Z,1.47
2022-10-18T22:50:11.891Z,0.93
2022-10-18T22:52:42.862Z,1.10
2022-10-18T22:55:11.801Z,1.17
2022-10-18T22:57:40.412Z,1.23
2022-10-18T23:00:10.408Z,1.63
2022-10-18T23:02:39.603Z,1.73
2022-10-18T23:05:09.742Z,1.30
2022-10-18T23:07:39.244Z,2.07
2022-10-18T23:10:10.727Z,1.43
2022-10-18T23:12:40.065Z,1.27
2022-10-18T23:15:10.974Z,1.90
2022-10-18T23:17:40.741Z,1.17
2022-10-18T23:20:10.240Z,1.40
2022-10-18T23:22:38.866Z,1.80
2022-10-18T23:25:10.143Z,1.20
2022-10-18T23:27:39.543Z,1.50
2022-10-18T23:30:10.523Z,1.40
2022-10-18T23:32:39.658Z,1.37
2022-10-18T23:35:09.899Z,1.47
2022-10-18T23:37:39.411Z,1.20
2022-10-18T23:40:11.558Z,1.47
2022-10-18T23:42:40.658Z,1.70
2022-10-18T23:45:11.268Z,2.03
2022-10-18T23:47:39.973Z,1.60
2022-10-18T23:50:09.474Z,1.43
2022-10-18T23:52:38.452Z,1.47
2022-10-18T23:55:11.950Z,1.63
2022-10-18T23:57:40.810Z,1.80
